sensor_id;sensor_type;location;lat;lon;timestamp;pressure;altitude;pressure_sealevel;temperature;humidity
31538;BME280;18147;51.952;6.146;2022-09-27T00:00:58;99494.25;;;9.71;100.00
31538;BME280;18147;51.952;6.146;2022-09-27T00:03:24;99491.47;;;9.73;100.00
31538;BME280;18147;51.952;6.146;2022-09-27T00:06:15;99497.53;;;9.64;100.00
31538;BME280;18147;51.952;6.146;2022-09-27T00:08:43;99496.69;;;9.63;100.00
31538;BME280;18147;51.952;6.146;2022-09-27T00:11:26;99495.00;;;9.62;100.00
31538;BME280;18147;51.952;6.146;2022-09-27T00:13:54;99499.94;;;9.67;100.00
31538;BME280;18147;51.952;6.146;2022-09-27T00:16:21;99496.56;;;9.65;100.00
31538;BME280;18147;51.952;6.146;2022-09-27T00:18:47;99502.59;;;9.67;100.00
31538;BME280;18147;51.952;6.146;2022-09-27T00:21:12;99514.72;;;9.71;100.00
31538;BME280;18147;51.952;6.146;2022-09-27T00:23:38;99507.44;;;9.73;100.00
31538;BME280;18147;51.952;6.146;2022-09-27T00:26:05;99517.88;;;9.65;100.00
31538;BME280;18147;51.952;6.146;2022-09-27T00:28:31;99519.78;;;9.63;100.00
31538;BME280;18147;51.952;6.146;2022-09-27T00:30:58;99515.56;;;9.60;100.00
31538;BME280;18147;51.952;6.146;2022-09-27T00:33:24;99511.94;;;9.61;100.00
31538;BME280;18147;51.952;6.146;2022-09-27T00:35:50;99521.97;;;9.57;100.00
31538;BME280;18147;51.952;6.146;2022-09-27T00:38:15;99521.00;;;9.58;100.00
31538;BME280;18147;51.952;6.146;2022-09-27T00:40:41;99514.59;;;9.61;100.00
31538;BME280;18147;51.952;6.146;2022-09-27T00:43:25;99516.41;;;9.60;100.00
31538;BME280;18147;51.952;6.146;2022-09-27T00:45:57;99528.38;;;9.66;100.00
31538;BME280;18147;51.952;6.146;2022-09-27T00:48:28;99527.91;;;9.61;100.00
31538;BME280;18147;51.952;6.146;2022-09-27T00:50:58;99537.84;;;9.59;100.00
31538;BME280;18147;51.952;6.146;2022-09-27T00:53:47;99527.44;;;9.56;100.00
31538;BME280;18147;51.952;6.146;2022-09-27T00:56:21;99537.84;;;9.59;100.00
31538;BME280;18147;51.952;6.146;2022-09-27T00:59:05;99531.78;;;9.57;100.00
31538;BME280;18147;51.952;6.146;2022-09-27T01:01:32;99535.56;;;9.54;100.00
31538;BME280;18147;51.952;6.146;2022-09-27T01:04:02;99533.72;;;9.55;100.00
31538;BME280;18147;51.952;6.146;2022-09-27T01:06:30;99540.88;;;9.54;100.00
31538;BME280;18147;51.952;6.146;2022-09-27T01:08:55;99548.13;;;9.52;100.00
31538;BME280;18147;51.952;6.146;2022-09-27T01:11:34;99542.91;;;9.51;100.00
31538;BME280;18147;51.952;6.146;2022-09-27T01:23:28;99545.72;;;9.49;100.00
31538;BME280;18147;51.952;6.146;2022-09-27T01:34:00;99566.53;;;9.44;100.00
31538;BME280;18147;51.952;6.146;2022-09-27T01:39:56;99563.38;;;9.50;100.00
31538;BME280;18147;51.952;6.146;2022-09-27T01:42:49;99563.84;;;9.55;100.00
31538;BME280;18147;51.952;6.146;2022-09-27T01:45:25;99563.72;;;9.57;100.00
31538;BME280;18147;51.952;6.146;2022-09-27T01:48:31;99559.13;;;9.59;100.00
31538;BME280;18147;51.952;6.146;2022-09-27T01:51:07;99562.63;;;9.59;100.00
31538;BME280;18147;51.952;6.146;2022-09-27T01:53:37;99565.03;;;9.63;100.00
31538;BME280;18147;51.952;6.146;2022-09-27T01:56:21;99567.59;;;9.53;100.00
31538;BME280;18147;51.952;6.146;2022-09-27T02:01:26;99564.81;;;9.43;100.00
31538;BME280;18147;51.952;6.146;2022-09-27T02:03:54;99572.91;;;9.42;100.00
31538;BME280;18147;51.952;6.146;2022-09-27T02:06:45;99570.75;;;9.36;100.00
31538;BME280;18147;51.952;6.146;2022-09-27T02:09:26;99564.19;;;9.28;100.00
31538;BME280;18147;51.952;6.146;2022-09-27T02:12:30;99569.03;;;9.23;100.00
31538;BME280;18147;51.952;6.146;2022-09-27T02:15:06;99563.63;;;9.14;100.00
31538;BME280;18147;51.952;6.146;2022-09-27T02:17:53;99558.53;;;9.11;100.00
31538;BME280;18147;51.952;6.146;2022-09-27T02:20:44;99562.13;;;8.98;100.00
31538;BME280;18147;51.952;6.146;2022-09-27T02:26:03;99561.63;;;8.82;100.00
31538;BME280;18147;51.952;6.146;2022-09-27T02:28:41;99556.41;;;8.80;100.00
31538;BME280;18147;51.952;6.146;2022-09-27T02:31:09;99560.50;;;8.73;100.00
31538;BME280;18147;51.952;6.146;2022-09-27T02:36:11;99564.72;;;8.65;100.00
31538;BME280;18147;51.952;6.146;2022-09-27T02:38:36;99559.00;;;8.58;100.00
31538;BME280;18147;51.952;6.146;2022-09-27T02:41:02;99560.81;;;8.57;100.00
31538;BME280;18147;51.952;6.146;2022-09-27T02:43:30;99556.94;;;8.50;100.00
31538;BME280;18147;51.952;6.146;2022-09-27T02:48:37;99555.81;;;8.42;100.00
31538;BME280;18147;51.952;6.146;2022-09-27T02:57:11;99552.75;;;8.35;100.00
31538;BME280;18147;51.952;6.146;2022-09-27T03:00:17;99547.56;;;8.34;100.00
31538;BME280;18147;51.952;6.146;2022-09-27T03:03:17;99549.34;;;8.33;100.00
31538;BME280;18147;51.952;6.146;2022-09-27T03:06:02;99554.16;;;8.28;100.00
31538;BME280;18147;51.952;6.146;2022-09-27T03:08:28;99552.81;;;8.22;100.00
31538;BME280;18147;51.952;6.146;2022-09-27T03:10:54;99555.47;;;8.22;100.00
31538;BME280;18147;51.952;6.146;2022-09-27T03:13:20;99554.63;;;8.22;100.00
31538;BME280;18147;51.952;6.146;2022-09-27T03:15:47;99547.25;;;8.14;100.00
31538;BME280;18147;51.952;6.146;2022-09-27T03:18:47;99543.75;;;8.14;100.00
31538;BME280;18147;51.952;6.146;2022-09-27T03:21:38;99553.28;;;8.16;100.00
31538;BME280;18147;51.952;6.146;2022-09-27T03:24:04;99559.94;;;8.22;100.00
31538;BME280;18147;51.952;6.146;2022-09-27T03:26:30;99555.59;;;8.21;100.00
31538;BME280;18147;51.952;6.146;2022-09-27T03:28:56;99557.28;;;8.22;100.00
31538;BME280;18147;51.952;6.146;2022-09-27T03:31:22;99557.53;;;8.19;100.00
31538;BME280;18147;51.952;6.146;2022-09-27T03:34:11;99563.34;;;8.24;100.00
31538;BME280;18147;51.952;6.146;2022-09-27T03:36:36;99561.03;;;8.19;100.00
31538;BME280;18147;51.952;6.146;2022-09-27T03:39:02;99558.13;;;8.22;100.00
31538;BME280;18147;51.952;6.146;2022-09-27T03:41:27;99563.34;;;8.24;100.00
31538;BME280;18147;51.952;6.146;2022-09-27T03:43:53;99565.88;;;8.25;100.00
31538;BME280;18147;51.952;6.146;2022-09-27T03:46:22;99563.00;;;8.28;100.00
31538;BME280;18147;51.952;6.146;2022-09-27T03:48:48;99561.19;;;8.29;100.00
31538;BME280;18147;51.952;6.146;2022-09-27T03:51:14;99560.84;;;8.34;100.00
31538;BME280;18147;51.952;6.146;2022-09-27T03:53:39;99557.97;;;8.37;100.00
31538;BME280;18147;51.952;6.146;2022-09-27T03:56:05;99562.53;;;8.35;100.00
31538;BME280;18147;51.952;6.146;2022-09-27T03:58:30;99563.38;;;8.35;100.00
31538;BME280;18147;51.952;6.146;2022-09-27T04:00:57;99572.31;;;8.34;100.00
31538;BME280;18147;51.952;6.146;2022-09-27T04:03:22;99572.94;;;8.38;100.00
31538;BME280;18147;51.952;6.146;2022-09-27T04:06:06;99574.84;;;8.36;100.00
31538;BME280;18147;51.952;6.146;2022-09-27T04:08:38;99571.88;;;8.40;100.00
31538;BME280;18147;51.952;6.146;2022-09-27T04:11:05;99581.53;;;8.41;100.00
31538;BME280;18147;51.952;6.146;2022-09-27T04:13:31;99569.72;;;8.45;100.00
31538;BME280;18147;51.952;6.146;2022-09-27T04:15:56;99580.56;;;8.42;100.00
31538;BME280;18147;51.952;6.146;2022-09-27T04:18:57;99568.69;;;8.35;100.00
31538;BME280;18147;51.952;6.146;2022-09-27T04:21:44;99577.84;;;8.31;100.00
31538;BME280;18147;51.952;6.146;2022-09-27T04:24:11;99577.72;;;8.32;100.00
31538;BME280;18147;51.952;6.146;2022-09-27T04:26:38;99585.03;;;8.42;100.00
31538;BME280;18147;51.952;6.146;2022-09-27T04:29:09;99580.22;;;8.47;100.00
31538;BME280;18147;51.952;6.146;2022-09-27T04:31:37;99572.03;;;8.50;100.00
31538;BME280;18147;51.952;6.146;2022-09-27T04:34:38;99582.03;;;8.46;100.00
31538;BME280;18147;51.952;6.146;2022-09-27T04:37:23;99578.06;;;8.52;100.00
31538;BME280;18147;51.952;6.146;2022-09-27T04:39:53;99580.00;;;8.50;100.00
31538;BME280;18147;51.952;6.146;2022-09-27T04:42:18;99582.31;;;8.54;100.00
31538;BME280;18147;51.952;6.146;2022-09-27T04:44:44;99579.41;;;8.57;100.00
31538;BME280;18147;51.952;6.146;2022-09-27T04:47:10;99568.91;;;8.56;100.00
31538;BME280;18147;51.952;6.146;2022-09-27T04:49:36;99579.31;;;8.59;100.00
31538;BME280;18147;51.952;6.146;2022-09-27T04:52:03;99575.19;;;8.55;100.00
31538;BME280;18147;51.952;6.146;2022-09-27T04:54:31;99568.78;;;8.57;100.00
31538;BME280;18147;51.952;6.146;2022-09-27T04:57:06;99582.06;;;8.57;100.00
31538;BME280;18147;51.952;6.146;2022-09-27T04:59:32;99572.28;;;8.58;100.00
31538;BME280;18147;51.952;6.146;2022-09-27T05:01:57;99581.47;;;8.54;100.00
31538;BME280;18147;51.952;6.146;2022-09-27T05:04:45;99580.16;;;8.60;100.00
31538;BME280;18147;51.952;6.146;2022-09-27T05:07:10;99572.69;;;8.65;100.00
31538;BME280;18147;51.952;6.146;2022-09-27T05:09:41;99581.50;;;8.65;100.00
31538;BME280;18147;51.952;6.146;2022-09-27T05:12:07;99583.03;;;8.56;100.00
31538;BME280;18147;51.952;6.146;2022-09-27T05:14:33;99590.28;;;8.54;100.00
31538;BME280;18147;51.952;6.146;2022-09-27T05:17:09;99585.44;;;8.48;100.00
31538;BME280;18147;51.952;6.146;2022-09-27T05:19:53;99590.13;;;8.45;100.00
31538;BME280;18147;51.952;6.146;2022-09-27T05:22:32;99591.81;;;8.46;100.00
31538;BME280;18147;51.952;6.146;2022-09-27T05:24:57;99598.31;;;8.42;100.00
31538;BME280;18147;51.952;6.146;2022-09-27T05:27:23;99599.06;;;8.44;100.00
31538;BME280;18147;51.952;6.146;2022-09-27T05:29:49;99603.75;;;8.40;100.00
31538;BME280;18147;51.952;6.146;2022-09-27T05:32:20;99600.25;;;8.40;100.00
31538;BME280;18147;51.952;6.146;2022-09-27T05:34:51;99603.22;;;8.35;100.00
31538;BME280;18147;51.952;6.146;2022-09-27T05:37:18;99607.38;;;8.39;100.00
31538;BME280;18147;51.952;6.146;2022-09-27T05:39:43;99596.75;;;8.39;100.00
31538;BME280;18147;51.952;6.146;2022-09-27T05:42:12;99595.91;;;8.39;100.00
31538;BME280;18147;51.952;6.146;2022-09-27T05:44:40;99604.59;;;8.41;100.00
31538;BME280;18147;51.952;6.146;2022-09-27T05:47:06;99602.66;;;8.43;100.00
31538;BME280;18147;51.952;6.146;2022-09-27T05:49:32;99608.81;;;8.43;100.00
31538;BME280;18147;51.952;6.146;2022-09-27T05:51:59;99609.19;;;8.39;100.00
31538;BME280;18147;51.952;6.146;2022-09-27T05:54:27;99601.63;;;8.32;100.00
31538;BME280;18147;51.952;6.146;2022-09-27T05:56:55;99607.47;;;8.38;100.00
31538;BME280;18147;51.952;6.146;2022-09-27T05:59:45;99612.78;;;8.38;100.00
31538;BME280;18147;51.952;6.146;2022-09-27T06:02:21;99604.19;;;8.34;100.00
31538;BME280;18147;51.952;6.146;2022-09-27T06:05:05;99614.81;;;8.34;100.00
31538;BME280;18147;51.952;6.146;2022-09-27T06:07:51;99613.34;;;8.30;100.00
31538;BME280;18147;51.952;6.146;2022-09-27T06:10:24;99610.56;;;8.31;100.00
31538;BME280;18147;51.952;6.146;2022-09-27T06:12:50;99615.03;;;8.31;100.00
31538;BME280;18147;51.952;6.146;2022-09-27T06:15:28;99614.81;;;8.34;100.00
31538;BME280;18147;51.952;6.146;2022-09-27T06:17:54;99611.53;;;8.30;100.00
31538;BME280;18147;51.952;6.146;2022-09-27T06:20:20;99612.25;;;8.32;100.00
31538;BME280;18147;51.952;6.146;2022-09-27T06:22:46;99619.16;;;8.35;100.00
31538;BME280;18147;51.952;6.146;2022-09-27T06:25:17;99616.19;;;8.40;100.00
31538;BME280;18147;51.952;6.146;2022-09-27T06:27:56;99622.63;;;8.48;100.00
31538;BME280;18147;51.952;6.146;2022-09-27T06:30:26;99621.34;;;8.54;100.00
31538;BME280;18147;51.952;6.146;2022-09-27T06:32:59;99624.50;;;8.59;100.00
31538;BME280;18147;51.952;6.146;2022-09-27T06:35:29;99631.31;;;8.74;100.00
31538;BME280;18147;51.952;6.146;2022-09-27T06:37:55;99635.03;;;9.07;100.00
31538;BME280;18147;51.952;6.146;2022-09-27T06:40:22;99639.28;;;9.32;100.00
31538;BME280;18147;51.952;6.146;2022-09-27T06:42:53;99647.66;;;9.61;100.00
31538;BME280;18147;51.952;6.146;2022-09-27T06:45:37;99630.63;;;9.75;100.00
31538;BME280;18147;51.952;6.146;2022-09-27T06:48:20;99642.94;;;9.42;100.00
31538;BME280;18147;51.952;6.146;2022-09-27T06:51:03;99644.53;;;9.45;100.00
31538;BME280;18147;51.952;6.146;2022-09-27T06:53:29;99635.22;;;9.84;100.00
31538;BME280;18147;51.952;6.146;2022-09-27T06:55:59;99637.44;;;10.22;100.00
31538;BME280;18147;51.952;6.146;2022-09-27T06:58:28;99637.09;;;10.27;100.00
31538;BME280;18147;51.952;6.146;2022-09-27T07:01:32;99640.09;;;10.77;100.00
31538;BME280;18147;51.952;6.146;2022-09-27T07:04:23;99653.56;;;10.96;100.00
31538;BME280;18147;51.952;6.146;2022-09-27T07:07:06;99646.66;;;10.94;100.00
31538;BME280;18147;51.952;6.146;2022-09-27T07:09:36;99652.50;;;10.87;100.00
31538;BME280;18147;51.952;6.146;2022-09-27T07:12:05;99659.22;;;10.50;100.00
31538;BME280;18147;51.952;6.146;2022-09-27T07:14:31;99655.63;;;10.40;100.00
31538;BME280;18147;51.952;6.146;2022-09-27T07:16:59;99657.72;;;10.57;100.00
31538;BME280;18147;51.952;6.146;2022-09-27T07:19:28;99660.78;;;10.84;100.00
31538;BME280;18147;51.952;6.146;2022-09-27T07:21:54;99661.25;;;10.89;100.00
31538;BME280;18147;51.952;6.146;2022-09-27T07:24:21;99663.72;;;11.23;100.00
31538;BME280;18147;51.952;6.146;2022-09-27T07:26:47;99668.75;;;11.17;100.00
31538;BME280;18147;51.952;6.146;2022-09-27T07:29:15;99678.94;;;10.91;100.00
31538;BME280;18147;51.952;6.146;2022-09-27T07:31:40;99679.06;;;10.57;100.00
31538;BME280;18147;51.952;6.146;2022-09-27T07:34:07;99677.88;;;10.38;100.00
31538;BME280;18147;51.952;6.146;2022-09-27T07:36:33;99686.03;;;10.26;100.00
31538;BME280;18147;51.952;6.146;2022-09-27T07:38:59;99676.94;;;10.17;100.00
31538;BME280;18147;51.952;6.146;2022-09-27T07:41:25;99675.09;;;10.18;100.00
31538;BME280;18147;51.952;6.146;2022-09-27T07:43:52;99677.06;;;10.16;100.00
31538;BME280;18147;51.952;6.146;2022-09-27T07:46:18;99676.31;;;10.36;100.00
31538;BME280;18147;51.952;6.146;2022-09-27T07:48:52;99668.56;;;10.33;100.00
31538;BME280;18147;51.952;6.146;2022-09-27T07:51:47;99679.22;;;10.44;100.00
31538;BME280;18147;51.952;6.146;2022-09-27T07:54:32;99676.16;;;10.60;100.00
31538;BME280;18147;51.952;6.146;2022-09-27T07:57:04;99687.66;;;10.60;100.00
31538;BME280;18147;51.952;6.146;2022-09-27T07:59:30;99678.94;;;10.91;100.00
31538;BME280;18147;51.952;6.146;2022-09-27T08:01:55;99685.25;;;10.89;100.00
31538;BME280;18147;51.952;6.146;2022-09-27T08:04:21;99684.81;;;11.05;100.00
31538;BME280;18147;51.952;6.146;2022-09-27T08:06:46;99693.06;;;11.44;100.00
31538;BME280;18147;51.952;6.146;2022-09-27T08:09:12;99683.97;;;11.47;100.00
31538;BME280;18147;51.952;6.146;2022-09-27T08:11:39;99695.75;;;11.23;100.00
31538;BME280;18147;51.952;6.146;2022-09-27T08:14:05;99692.50;;;11.20;100.00
31538;BME280;18147;51.952;6.146;2022-09-27T08:16:33;99696.41;;;11.15;100.00
31538;BME280;18147;51.952;6.146;2022-09-27T08:19:18;99700.75;;;11.17;100.00
31538;BME280;18147;51.952;6.146;2022-09-27T08:22:02;99707.94;;;11.37;100.00
31538;BME280;18147;51.952;6.146;2022-09-27T08:24:35;99704.88;;;11.41;100.00
31538;BME280;18147;51.952;6.146;2022-09-27T08:27:05;99710.06;;;11.22;100.00
31538;BME280;18147;51.952;6.146;2022-09-27T08:29:58;99711.56;;;11.36;100.00
31538;BME280;18147;51.952;6.146;2022-09-27T08:32:24;99712.53;;;11.77;100.00
31538;BME280;18147;51.952;6.146;2022-09-27T08:34:52;99704.84;;;11.83;100.00
31538;BME280;18147;51.952;6.146;2022-09-27T08:37:19;99709.41;;;11.92;100.00
31538;BME280;18147;51.952;6.146;2022-09-27T08:39:46;99717.22;;;11.84;100.00
31538;BME280;18147;51.952;6.146;2022-09-27T08:42:39;99720.03;;;12.13;100.00
31538;BME280;18147;51.952;6.146;2022-09-27T08:45:16;99714.28;;;11.87;100.00
31538;BME280;18147;51.952;6.146;2022-09-27T08:47:51;99715.47;;;12.04;100.00
31538;BME280;18147;51.952;6.146;2022-09-27T08:50:35;99725.06;;;12.07;100.00
31538;BME280;18147;51.952;6.146;2022-09-27T08:53:16;99730.38;;;11.97;100.00
31538;BME280;18147;51.952;6.146;2022-09-27T08:55:47;99729.72;;;11.84;100.00
31538;BME280;18147;51.952;6.146;2022-09-27T09:00:56;99734.53;;;11.69;100.00
31538;BME280;18147;51.952;6.146;2022-09-27T09:03:30;99729.13;;;11.38;100.00
31538;BME280;18147;51.952;6.146;2022-09-27T09:06:08;99727.66;;;11.46;100.00
31538;BME280;18147;51.952;6.146;2022-09-27T09:08:49;99726.91;;;11.64;100.00
31538;BME280;18147;51.952;6.146;2022-09-27T09:14:17;99717.94;;;11.65;100.00
31538;BME280;18147;51.952;6.146;2022-09-27T09:16:53;99732.41;;;11.42;100.00
31538;BME280;18147;51.952;6.146;2022-09-27T09:19:44;99729.13;;;11.80;100.00
31538;BME280;18147;51.952;6.146;2022-09-27T09:22:36;99730.38;;;11.97;100.00
31538;BME280;18147;51.952;6.146;2022-09-27T09:27:50;99731.34;;;11.75;100.00
31538;BME280;18147;51.952;6.146;2022-09-27T09:30:20;99723.94;;;12.09;100.00
31538;BME280;18147;51.952;6.146;2022-09-27T09:33:03;99725.84;;;12.28;100.00
31538;BME280;18147;51.952;6.146;2022-09-27T09:36:12;99720.47;;;12.18;100.00
31538;BME280;18147;51.952;6.146;2022-09-27T09:38:46;99720.97;;;12.43;100.00
31538;BME280;18147;51.952;6.146;2022-09-27T09:44:21;99718.06;;;12.56;100.00
31538;BME280;18147;51.952;6.146;2022-09-27T09:46:52;99717.13;;;12.86;100.00
31538;BME280;18147;51.952;6.146;2022-09-27T09:49:44;99723.28;;;12.67;100.00
31538;BME280;18147;51.952;6.146;2022-09-27T09:52:20;99721.13;;;12.41;100.00
31538;BME280;18147;51.952;6.146;2022-09-27T09:54:55;99728.28;;;12.01;100.00
31538;BME280;18147;51.952;6.146;2022-09-27T09:57:27;99728.88;;;11.83;100.00
31538;BME280;18147;51.952;6.146;2022-09-27T10:00:01;99734.06;;;11.64;100.00
31538;BME280;18147;51.952;6.146;2022-09-27T10:02:43;99735.72;;;11.76;100.00
31538;BME280;18147;51.952;6.146;2022-09-27T10:05:15;99733.44;;;11.72;100.00
31538;BME280;18147;51.952;6.146;2022-09-27T10:07:41;99729.59;;;11.64;100.00
31538;BME280;18147;51.952;6.146;2022-09-27T10:10:12;99727.31;;;11.39;100.00
31538;BME280;18147;51.952;6.146;2022-09-27T10:13:14;99734.13;;;11.11;100.00
31538;BME280;18147;51.952;6.146;2022-09-27T10:15:49;99731.53;;;10.88;100.00
31538;BME280;18147;51.952;6.146;2022-09-27T10:18:17;99730.75;;;10.77;100.00
31538;BME280;18147;51.952;6.146;2022-09-27T10:20:53;99730.66;;;10.67;100.00
31538;BME280;18147;51.952;6.146;2022-09-27T10:23:22;99725.25;;;10.89;100.00
31538;BME280;18147;51.952;6.146;2022-09-27T10:26:10;99716.97;;;11.25;100.00
31538;BME280;18147;51.952;6.146;2022-09-27T10:28:42;99719.50;;;11.26;100.00
31538;BME280;18147;51.952;6.146;2022-09-27T10:31:19;99721.38;;;11.77;100.00
31538;BME280;18147;51.952;6.146;2022-09-27T10:33:59;99720.53;;;11.77;100.00
31538;BME280;18147;51.952;6.146;2022-09-27T10:36:31;99723.28;;;11.86;100.00
31538;BME280;18147;51.952;6.146;2022-09-27T10:39:00;99730.91;;;11.91;100.00
31538;BME280;18147;51.952;6.146;2022-09-27T10:41:39;99725.13;;;11.65;100.00
31538;BME280;18147;51.952;6.146;2022-09-27T10:44:29;99718.66;;;11.88;100.00
31538;BME280;18147;51.952;6.146;2022-09-27T10:47:08;99727.44;;;11.58;100.00
31538;BME280;18147;51.952;6.146;2022-09-27T10:50:04;99731.69;;;11.82;100.00
31538;BME280;18147;51.952;6.146;2022-09-27T10:53:15;99738.19;;;11.89;100.00
31538;BME280;18147;51.952;6.146;2022-09-27T10:55:50;99727.59;;;12.08;100.00
31538;BME280;18147;51.952;6.146;2022-09-27T10:58:29;99730.75;;;11.92;100.00
31538;BME280;18147;51.952;6.146;2022-09-27T11:00:58;99728.72;;;12.06;100.00
31538;BME280;18147;51.952;6.146;2022-09-27T11:03:26;99734.31;;;12.33;100.00
31538;BME280;18147;51.952;6.146;2022-09-27T11:05:55;99731.53;;;12.54;100.00
31538;BME280;18147;51.952;6.146;2022-09-27T11:08:27;99732.09;;;12.48;100.00
31538;BME280;18147;51.952;6.146;2022-09-27T11:13:26;99728.50;;;12.88;100.00
31538;BME280;18147;51.952;6.146;2022-09-27T11:16:33;99728.66;;;12.27;100.00
31538;BME280;18147;51.952;6.146;2022-09-27T11:24:16;99734.03;;;12.36;100.00
31538;BME280;18147;51.952;6.146;2022-09-27T11:29:40;99733.38;;;12.54;100.00
31538;BME280;18147;51.952;6.146;2022-09-27T11:35:29;99738.88;;;12.52;100.00
31538;BME280;18147;51.952;6.146;2022-09-27T11:52:15;99742.19;;;12.35;98.58
31538;BME280;18147;51.952;6.146;2022-09-27T11:55:08;99741.47;;;12.33;98.17
31538;BME280;18147;51.952;6.146;2022-09-27T11:57:46;99735.69;;;12.87;98.08
31538;BME280;18147;51.952;6.146;2022-09-27T12:06:15;99726.28;;;13.41;100.00
31538;BME280;18147;51.952;6.146;2022-09-27T12:08:47;99730.22;;;13.18;97.91
31538;BME280;18147;51.952;6.146;2022-09-27T12:14:23;99730.38;;;13.16;99.46
31538;BME280;18147;51.952;6.146;2022-09-27T12:16:56;99727.53;;;13.18;95.77
31538;BME280;18147;51.952;6.146;2022-09-27T12:19:30;99728.78;;;12.94;94.09
31538;BME280;18147;51.952;6.146;2022-09-27T12:22:06;99726.84;;;13.06;93.91
31538;BME280;18147;51.952;6.146;2022-09-27T12:24:38;99728.97;;;13.41;94.18
31538;BME280;18147;51.952;6.146;2022-09-27T12:27:42;99729.09;;;13.40;90.38
31538;BME280;18147;51.952;6.146;2022-09-27T12:30:15;99732.47;;;13.03;92.01
31538;BME280;18147;51.952;6.146;2022-09-27T12:32:57;99733.69;;;12.70;96.13
31538;BME280;18147;51.952;6.146;2022-09-27T12:35:41;99733.44;;;12.83;97.25
31538;BME280;18147;51.952;6.146;2022-09-27T12:38:13;99735.94;;;12.65;97.06
31538;BME280;18147;51.952;6.146;2022-09-27T12:40:44;99721.31;;;12.79;98.12
31538;BME280;18147;51.952;6.146;2022-09-27T12:43:18;99726.53;;;12.70;98.23
31538;BME280;18147;51.952;6.146;2022-09-27T12:46:46;99724.63;;;13.31;96.12
31538;BME280;18147;51.952;6.146;2022-09-27T12:52:17;99716.97;;;13.16;89.93
31538;BME280;18147;51.952;6.146;2022-09-27T12:55:28;99716.25;;;13.63;91.43
31538;BME280;18147;51.952;6.146;2022-09-27T13:03:47;99722.00;;;12.61;87.42
31538;BME280;18147;51.952;6.146;2022-09-27T13:09:20;99715.50;;;12.64;89.14
31538;BME280;18147;51.952;6.146;2022-09-27T13:14:28;99708.75;;;12.69;93.40
31538;BME280;18147;51.952;6.146;2022-09-27T13:16:55;99717.38;;;12.73;91.13
31538;BME280;18147;51.952;6.146;2022-09-27T13:22:06;99714.22;;;12.49;92.49
31538;BME280;18147;51.952;6.146;2022-09-27T13:32:39;99725.13;;;12.76;91.95
31538;BME280;18147;51.952;6.146;2022-09-27T13:45:58;99740.66;;;12.42;96.69
31538;BME280;18147;51.952;6.146;2022-09-27T13:53:41;99741.25;;;12.05;100.00
31538;BME280;18147;51.952;6.146;2022-09-27T13:59:28;99720.78;;;11.95;100.00
31538;BME280;18147;51.952;6.146;2022-09-27T14:02:19;99729.94;;;11.71;100.00
31538;BME280;18147;51.952;6.146;2022-09-27T14:04:50;99730.41;;;11.55;100.00
31538;BME280;18147;51.952;6.146;2022-09-27T14:07:20;99728.03;;;11.62;100.00
31538;BME280;18147;51.952;6.146;2022-09-27T14:09:50;99725.63;;;11.59;100.00
31538;BME280;18147;51.952;6.146;2022-09-27T14:12:38;99727.19;;;11.61;100.00
31538;BME280;18147;51.952;6.146;2022-09-27T14:15:15;99724.06;;;11.56;100.00
31538;BME280;18147;51.952;6.146;2022-09-27T14:17:42;99718.41;;;11.71;100.00
31538;BME280;18147;51.952;6.146;2022-09-27T14:20:39;99714.59;;;11.73;100.00
31538;BME280;18147;51.952;6.146;2022-09-27T14:23:20;99711.88;;;11.84;100.00
31538;BME280;18147;51.952;6.146;2022-09-27T14:25:49;99715.03;;;11.99;97.92
31538;BME280;18147;51.952;6.146;2022-09-27T14:28:23;99708.19;;;12.06;98.47
31538;BME280;18147;51.952;6.146;2022-09-27T14:31:18;99706.72;;;12.33;99.39
31538;BME280;18147;51.952;6.146;2022-09-27T14:34:05;99699.91;;;12.19;98.81
31538;BME280;18147;51.952;6.146;2022-09-27T14:36:33;99693.19;;;12.25;100.00
31538;BME280;18147;51.952;6.146;2022-09-27T14:39:27;99694.28;;;12.12;99.29
31538;BME280;18147;51.952;6.146;2022-09-27T14:41:56;99697.75;;;12.03;98.08
31538;BME280;18147;51.952;6.146;2022-09-27T14:44:21;99698.78;;;12.12;99.44
31538;BME280;18147;51.952;6.146;2022-09-27T14:47:13;99700.41;;;11.73;100.00
31538;BME280;18147;51.952;6.146;2022-09-27T14:49:50;99697.56;;;11.85;100.00
31538;BME280;18147;51.952;6.146;2022-09-27T14:52:25;99692.34;;;11.84;100.00
31538;BME280;18147;51.952;6.146;2022-09-27T14:57:23;99698.00;;;11.90;100.00
31538;BME280;18147;51.952;6.146;2022-09-27T14:59:49;99704.19;;;11.91;100.00
31538;BME280;18147;51.952;6.146;2022-09-27T15:02:18;99703.59;;;11.87;98.34
31538;BME280;18147;51.952;6.146;2022-09-27T15:04:47;99704.13;;;11.81;98.19
31538;BME280;18147;51.952;6.146;2022-09-27T15:07:13;99707.56;;;11.93;99.23
31538;BME280;18147;51.952;6.146;2022-09-27T15:09:42;99705.28;;;11.67;100.00
31538;BME280;18147;51.952;6.146;2022-09-27T15:12:11;99703.63;;;11.66;100.00
31538;BME280;18147;51.952;6.146;2022-09-27T15:14:39;99709.66;;;11.68;100.00
31538;BME280;18147;51.952;6.146;2022-09-27T15:17:18;99706.06;;;11.79;100.00
31538;BME280;18147;51.952;6.146;2022-09-27T15:20:03;99707.91;;;11.58;100.00
31538;BME280;18147;51.952;6.146;2022-09-27T15:22:33;99704.41;;;11.57;100.00
31538;BME280;18147;51.952;6.146;2022-09-27T15:28:00;99707.75;;;11.50;99.31
31538;BME280;18147;51.952;6.146;2022-09-27T15:30:39;99707.53;;;11.41;99.86
31538;BME280;18147;51.952;6.146;2022-09-27T15:33:16;99710.28;;;11.30;100.00
31538;BME280;18147;51.952;6.146;2022-09-27T15:35:48;99705.03;;;11.29;100.00
31538;BME280;18147;51.952;6.146;2022-09-27T15:38:31;99694.66;;;11.26;100.00
31538;BME280;18147;51.952;6.146;2022-09-27T15:41:00;99705.13;;;11.18;100.00
31538;BME280;18147;51.952;6.146;2022-09-27T15:43:28;99700.44;;;11.31;100.00
31538;BME280;18147;51.952;6.146;2022-09-27T15:45:57;99699.25;;;11.24;100.00
31538;BME280;18147;51.952;6.146;2022-09-27T15:48:26;99702.13;;;11.32;100.00